Time;durP1;ratioP1;P1;durP2;ratioP2;P2;SDS_P1;SDS_P2;PMS_P1;PMS_P2;Temp;Humidity;BMP_temperature;BMP_pressure;BME280_temperature;BME280_humidity;BME280_pressure;Samples;Min_cycle;Max_cycle;Signal;HPM_P1;HPM_P2
2023/07/07 00:00:34;;;;;;;;;;;21.80;99.90;;;;;;5093672;28;20009;-64
2023/07/07 00:03:00;;;;;;;;;;;21.80;99.90;;;;;;5093734;28;20471;-64
2023/07/07 00:05:26;;;;;;;;;;;21.90;99.90;;;;;;5093552;28;20459;-62
2023/07/07 00:07:51;;;;;;;;;;;21.80;99.90;;;;;;5093875;28;20325;-63
2023/07/07 00:10:17;;;;;;;;;;;21.80;99.90;;;;;;5093364;28;19985;-63
2023/07/07 00:12:43;;;;;;;;;;;21.80;99.90;;;;;;5093766;28;19996;-63
2023/07/07 00:15:09;;;;;;;;;;;21.80;99.90;;;;;;5093534;28;20083;-64
2023/07/07 00:17:34;;;;;;;;;;;21.80;99.90;;;;;;5093465;28;19989;-64
2023/07/07 00:20:06;;;;;;;;;;;21.80;99.90;;;;;;5093369;28;20118;-64
2023/07/07 00:22:33;;;;;;;;;;;21.80;99.90;;;;;;5097104;28;20008;-64
2023/07/07 00:24:58;;;;;;;;;;;21.80;99.90;;;;;;5097460;28;20079;-63
2023/07/07 00:27:24;;;;;;;;;;;21.80;99.90;;;;;;5097151;28;20422;-63
2023/07/07 00:29:49;;;;;;;;;;;21.80;99.90;;;;;;5097531;28;19991;-64
2023/07/07 00:32:15;;;;;;;;;;;21.70;99.90;;;;;;5097349;28;19985;-63
2023/07/07 00:34:41;;;;;;;;;;;21.70;99.90;;;;;;5097236;28;20103;-64
2023/07/07 00:37:06;;;;;;;;;;;21.70;99.90;;;;;;5097250;28;20054;-64
2023/07/07 00:39:32;;;;;;;;;;;21.70;99.90;;;;;;5097126;28;19993;-65
2023/07/07 00:41:57;;;;;;;;;;;21.70;99.90;;;;;;5096910;28;19985;-63
2023/07/07 00:44:28;;;;;;;;;;;21.70;99.90;;;;;;5097240;28;19989;-64
2023/07/07 00:46:54;;;;;;;;;;;21.60;99.90;;;;;;5096970;28;20029;-63
2023/07/07 00:49:21;;;;;;;;;;;21.60;99.90;;;;;;5096912;28;20038;-65
2023/07/07 00:51:51;;;;;;;;;;;21.70;99.90;;;;;;5096780;28;20443;-64
2023/07/07 00:54:19;;;;;;;;;;;21.70;99.90;;;;;;5096874;28;19985;-63
2023/07/07 00:56:47;;;;;;;;;;;21.70;99.90;;;;;;5096847;28;20521;-63
2023/07/07 00:59:25;;;;;;;;;;;21.70;99.90;;;;;;5096932;28;20494;-63
2023/07/07 01:01:53;;;;;;;;;;;21.70;99.90;;;;;;5096745;28;20009;-65
2023/07/07 01:04:19;;;;;;;;;;;21.70;99.90;;;;;;5096899;28;19989;-63
2023/07/07 01:06:56;;;;;;;;;;;21.70;99.90;;;;;;5096513;28;19988;-63
2023/07/07 01:09:21;;;;;;;;;;;21.70;99.90;;;;;;5096654;28;20034;-64
2023/07/07 01:11:47;;;;;;;;;;;21.70;99.90;;;;;;5096476;28;19985;-63
2023/07/07 01:14:15;;;;;;;;;;;21.70;99.90;;;;;;5096457;28;19989;-63
2023/07/07 01:16:40;;;;;;;;;;;21.60;99.90;;;;;;5096510;28;20473;-65
2023/07/07 01:19:15;;;;;;;;;;;21.50;99.90;;;;;;5078187;28;19989;-64
2023/07/07 01:21:53;;;;;;;;;;;21.60;99.90;;;;;;5096218;28;20531;-64
2023/07/07 01:24:19;;;;;;;;;;;21.60;99.90;;;;;;5096092;28;19992;-63
2023/07/07 01:26:51;;;;;;;;;;;21.60;99.90;;;;;;5096278;28;20360;-62
2023/07/07 01:29:33;;;;;;;;;;;21.60;99.90;;;;;;5096295;28;20038;-64
2023/07/07 01:32:03;;;;;;;;;;;21.60;99.90;;;;;;5095793;28;20071;-64
2023/07/07 01:34:29;;;;;;;;;;;21.60;99.90;;;;;;5096078;28;20100;-62
2023/07/07 01:36:54;;;;;;;;;;;21.60;99.90;;;;;;5095973;28;20025;-63
2023/07/07 01:39:22;;;;;;;;;;;21.60;99.90;;;;;;5095804;28;19989;-63
2023/07/07 01:41:48;;;;;;;;;;;21.50;99.90;;;;;;5096041;28;20009;-64
2023/07/07 01:44:30;;;;;;;;;;;21.50;99.90;;;;;;5095808;28;20091;-63
2023/07/07 01:47:00;;;;;;;;;;;21.50;99.90;;;;;;5095735;28;20031;-62
2023/07/07 01:49:28;;;;;;;;;;;21.50;99.90;;;;;;5095752;28;19985;-64
2023/07/07 01:51:59;;;;;;;;;;;21.50;99.90;;;;;;5095650;28;20020;-64
2023/07/07 01:54:26;;;;;;;;;;;21.50;99.90;;;;;;5095489;28;19996;-64
2023/07/07 01:56:53;;;;;;;;;;;21.40;99.90;;;;;;5095523;28;20091;-64
2023/07/07 01:59:18;;;;;;;;;;;21.30;99.90;;;;;;5095624;28;20426;-62
2023/07/07 02:01:44;;;;;;;;;;;21.30;99.90;;;;;;5095595;28;20056;-65
2023/07/07 02:04:10;;;;;;;;;;;21.30;99.90;;;;;;5095442;28;19985;-64
2023/07/07 02:06:35;;;;;;;;;;;21.30;99.90;;;;;;5095330;28;19992;-63
2023/07/07 02:09:01;;;;;;;;;;;21.20;99.90;;;;;;5095568;28;19985;-62
2023/07/07 02:11:27;;;;;;;;;;;21.20;99.90;;;;;;5095273;28;19996;-64
2023/07/07 02:13:52;;;;;;;;;;;21.10;99.90;;;;;;5095316;28;20041;-63
2023/07/07 02:16:18;;;;;;;;;;;21.10;99.90;;;;;;5095461;28;19992;-62
2023/07/07 02:18:48;;;;;;;;;;;21.00;99.90;;;;;;5095308;28;20332;-62
2023/07/07 02:21:17;;;;;;;;;;;20.80;99.90;;;;;;5095127;28;20378;-63
2023/07/07 02:23:44;;;;;;;;;;;20.80;99.90;;;;;;5095072;28;19996;-64
2023/07/07 02:26:10;;;;;;;;;;;20.90;99.90;;;;;;5095385;28;19996;-64
2023/07/07 02:28:35;;;;;;;;;;;21.00;99.90;;;;;;5095001;28;20363;-62
2023/07/07 02:31:01;;;;;;;;;;;21.00;99.90;;;;;;5095138;28;19992;-63
2023/07/07 02:33:31;;;;;;;;;;;21.00;99.90;;;;;;5095020;28;19988;-63
2023/07/07 02:36:00;;;;;;;;;;;21.00;99.90;;;;;;5094654;28;20036;-63
2023/07/07 02:38:26;;;;;;;;;;;21.00;99.90;;;;;;5095125;28;19989;-64
2023/07/07 02:40:51;;;;;;;;;;;21.00;99.90;;;;;;5094803;28;20425;-65
2023/07/07 02:43:17;;;;;;;;;;;20.90;99.90;;;;;;5094018;28;20015;-62
2023/07/07 02:45:43;;;;;;;;;;;20.90;99.90;;;;;;5094500;28;20448;-63
2023/07/07 02:48:08;;;;;;;;;;;20.90;99.90;;;;;;5094705;28;19985;-64
2023/07/07 02:50:34;;;;;;;;;;;21.00;99.90;;;;;;5094236;28;20037;-63
2023/07/07 02:52:59;;;;;;;;;;;21.00;99.90;;;;;;5094604;28;19992;-61
2023/07/07 02:55:25;;;;;;;;;;;21.00;99.90;;;;;;5094528;28;19986;-64
2023/07/07 02:57:51;;;;;;;;;;;21.10;99.90;;;;;;5094461;28;20091;-64
2023/07/07 03:00:16;;;;;;;;;;;21.10;99.90;;;;;;5094389;28;20353;-65
2023/07/07 03:02:43;;;;;;;;;;;21.00;99.90;;;;;;5094467;28;20008;-62
2023/07/07 03:05:08;;;;;;;;;;;21.00;99.90;;;;;;5094264;28;20443;-64
2023/07/07 03:07:34;;;;;;;;;;;21.00;99.90;;;;;;5094329;28;19992;-63
2023/07/07 03:09:59;;;;;;;;;;;20.90;99.90;;;;;;5094387;28;20084;-64
2023/07/07 03:12:25;;;;;;;;;;;20.90;99.90;;;;;;5094186;28;20466;-63
2023/07/07 03:14:54;;;;;;;;;;;20.90;99.90;;;;;;5094114;28;20470;-63
2023/07/07 03:17:20;;;;;;;;;;;20.90;99.90;;;;;;5094245;28;19991;-64
2023/07/07 03:19:45;;;;;;;;;;;21.00;99.90;;;;;;5093921;28;20347;-64
2023/07/07 03:22:11;;;;;;;;;;;21.00;99.90;;;;;;5094102;28;19985;-62
2023/07/07 03:24:36;;;;;;;;;;;21.00;99.90;;;;;;5094203;28;19985;-64
2023/07/07 03:27:02;;;;;;;;;;;21.00;99.90;;;;;;5094037;28;19996;-63
2023/07/07 03:29:28;;;;;;;;;;;21.10;99.90;;;;;;5093995;28;19992;-63
2023/07/07 03:31:53;;;;;;;;;;;21.10;99.90;;;;;;5094131;28;19985;-65
2023/07/07 03:34:19;;;;;;;;;;;21.10;99.90;;;;;;5093778;28;19985;-63
2023/07/07 03:36:44;;;;;;;;;;;21.10;99.90;;;;;;5094158;28;20076;-63
2023/07/07 03:39:10;;;;;;;;;;;21.10;99.90;;;;;;5093856;28;19989;-63
2023/07/07 03:41:36;;;;;;;;;;;21.10;99.90;;;;;;5093917;28;20106;-63
2023/07/07 03:44:02;;;;;;;;;;;21.10;99.90;;;;;;5093959;28;20055;-65
2023/07/07 03:46:28;;;;;;;;;;;21.20;99.90;;;;;;5093541;28;20021;-65
2023/07/07 03:48:54;;;;;;;;;;;21.20;99.90;;;;;;5093894;28;20012;-63
2023/07/07 03:51:21;;;;;;;;;;;21.20;99.90;;;;;;5093798;28;19985;-63
2023/07/07 03:53:48;;;;;;;;;;;21.20;99.90;;;;;;5093689;28;20505;-63
2023/07/07 03:56:13;;;;;;;;;;;21.30;99.90;;;;;;5097089;28;19989;-64
2023/07/07 03:58:39;;;;;;;;;;;21.30;99.90;;;;;;5098058;28;19985;-64
2023/07/07 04:01:06;;;;;;;;;;;21.30;99.90;;;;;;5097818;28;20009;-62
2023/07/07 04:03:31;;;;;;;;;;;21.30;99.90;;;;;;5097607;28;19989;-64
2023/07/07 04:05:57;;;;;;;;;;;21.30;99.90;;;;;;5097934;28;20035;-62
2023/07/07 04:08:24;;;;;;;;;;;21.30;99.90;;;;;;5097594;28;19999;-64
2023/07/07 04:10:57;;;;;;;;;;;21.40;99.90;;;;;;5097754;28;19989;-63
2023/07/07 04:13:23;;;;;;;;;;;21.40;99.90;;;;;;5097972;28;20015;-63
2023/07/07 04:15:59;;;;;;;;;;;21.40;99.90;;;;;;5097651;28;20092;-64
2023/07/07 04:18:24;;;;;;;;;;;21.40;99.90;;;;;;5097514;28;20035;-62
2023/07/07 04:20:50;;;;;;;;;;;21.40;99.90;;;;;;5097558;28;20375;-62
2023/07/07 04:23:15;;;;;;;;;;;21.40;99.90;;;;;;5097484;28;20047;-64
2023/07/07 04:25:43;;;;;;;;;;;21.40;99.90;;;;;;5097579;28;20004;-65
2023/07/07 04:28:09;;;;;;;;;;;21.50;99.90;;;;;;5097487;28;19992;-65
2023/07/07 04:30:34;;;;;;;;;;;21.50;99.90;;;;;;5097284;28;19985;-62
2023/07/07 04:33:00;;;;;;;;;;;21.50;99.90;;;;;;5097375;28;19989;-64
2023/07/07 04:35:25;;;;;;;;;;;21.50;99.90;;;;;;5097351;28;19985;-65
2023/07/07 04:37:51;;;;;;;;;;;21.60;99.90;;;;;;5097195;28;20011;-62
2023/07/07 04:40:17;;;;;;;;;;;21.60;99.90;;;;;;5097143;28;20016;-63
2023/07/07 04:42:42;;;;;;;;;;;21.70;99.90;;;;;;5097119;28;20347;-65
2023/07/07 04:45:08;;;;;;;;;;;21.70;99.90;;;;;;5097282;28;19996;-64
2023/07/07 04:47:33;;;;;;;;;;;21.80;99.90;;;;;;5096815;28;20059;-63
2023/07/07 04:49:59;;;;;;;;;;;21.80;99.90;;;;;;5097084;28;20038;-65
2023/07/07 04:52:25;;;;;;;;;;;21.90;99.90;;;;;;5096899;28;20042;-62
2023/07/07 04:54:50;;;;;;;;;;;22.00;99.90;;;;;;5096909;28;20030;-64
2023/07/07 04:57:16;;;;;;;;;;;22.10;99.90;;;;;;5096917;28;20005;-64
2023/07/07 04:59:41;;;;;;;;;;;22.20;99.90;;;;;;5096755;28;19989;-65
2023/07/07 05:02:07;;;;;;;;;;;22.30;99.90;;;;;;5096540;28;19985;-63
2023/07/07 05:04:34;;;;;;;;;;;22.40;99.90;;;;;;5096698;28;20394;-64
2023/07/07 05:06:59;;;;;;;;;;;22.40;99.90;;;;;;5095858;28;20122;-62
2023/07/07 05:09:25;;;;;;;;;;;22.50;99.90;;;;;;5096568;28;20016;-65
2023/07/07 05:11:50;;;;;;;;;;;22.60;99.90;;;;;;5096845;28;19989;-63
2023/07/07 05:14:16;;;;;;;;;;;22.60;99.90;;;;;;5096634;28;19992;-63
2023/07/07 05:16:41;;;;;;;;;;;22.60;99.90;;;;;;5096508;28;19993;-62
2023/07/07 05:19:07;;;;;;;;;;;22.70;99.90;;;;;;5096665;28;19985;-64
2023/07/07 05:21:33;;;;;;;;;;;22.70;99.90;;;;;;5096274;28;20062;-64
2023/07/07 05:23:59;;;;;;;;;;;22.70;99.90;;;;;;5096377;28;20162;-61
2023/07/07 05:26:28;;;;;;;;;;;22.80;99.90;;;;;;5096506;28;19989;-63
2023/07/07 05:28:54;;;;;;;;;;;22.90;99.90;;;;;;5096190;28;20003;-65
2023/07/07 05:31:20;;;;;;;;;;;23.10;99.90;;;;;;5096235;28;20489;-64
2023/07/07 05:33:46;;;;;;;;;;;23.10;99.90;;;;;;5096010;28;20432;-65
2023/07/07 05:36:11;;;;;;;;;;;23.20;99.90;;;;;;5096188;28;19992;-63
2023/07/07 05:38:40;;;;;;;;;;;23.40;99.90;;;;;;5096168;28;19985;-64
2023/07/07 05:41:06;;;;;;;;;;;23.30;99.90;;;;;;5095765;28;20448;-64
2023/07/07 05:43:34;;;;;;;;;;;23.40;99.90;;;;;;5096101;28;20075;-63
2023/07/07 05:46:00;;;;;;;;;;;23.50;99.90;;;;;;5095497;28;20031;-62
2023/07/07 05:48:26;;;;;;;;;;;23.60;99.70;;;;;;5096076;28;19988;-64
2023/07/07 05:50:53;;;;;;;;;;;23.60;99.80;;;;;;5095951;28;19992;-64
2023/07/07 05:53:19;;;;;;;;;;;23.80;99.90;;;;;;5095897;28;19992;-63
2023/07/07 05:55:46;;;;;;;;;;;23.80;99.90;;;;;;5095559;28;20444;-64
2023/07/07 05:58:12;;;;;;;;;;;23.70;99.60;;;;;;5095931;28;20009;-61
2023/07/07 06:00:38;;;;;;;;;;;23.60;99.40;;;;;;5095447;28;20052;-64
2023/07/07 06:03:04;;;;;;;;;;;23.60;99.70;;;;;;5095560;28;20062;-64
2023/07/07 06:05:29;;;;;;;;;;;23.60;99.80;;;;;;5095667;28;19989;-62
2023/07/07 06:07:55;;;;;;;;;;;23.80;99.40;;;;;;5095476;28;20442;-64
2023/07/07 06:10:24;;;;;;;;;;;23.80;99.30;;;;;;5095459;28;20463;-65
2023/07/07 06:12:50;;;;;;;;;;;24.00;98.90;;;;;;5095662;28;20015;-64
2023/07/07 06:15:16;;;;;;;;;;;24.10;99.20;;;;;;5095145;28;19985;-62
2023/07/07 06:17:42;;;;;;;;;;;24.30;98.60;;;;;;5095197;28;20431;-61
2023/07/07 06:20:07;;;;;;;;;;;24.40;98.00;;;;;;5095073;28;20062;-63
2023/07/07 06:22:33;;;;;;;;;;;24.50;96.90;;;;;;5095220;28;20012;-62
2023/07/07 06:25:00;;;;;;;;;;;24.60;95.80;;;;;;5095250;28;19992;-64
2023/07/07 06:27:26;;;;;;;;;;;24.60;95.80;;;;;;5094942;28;19996;-63
2023/07/07 06:29:52;;;;;;;;;;;24.80;95.40;;;;;;5094842;28;19990;-62
2023/07/07 06:32:17;;;;;;;;;;;24.90;95.00;;;;;;5095106;28;19985;-63
2023/07/07 06:34:43;;;;;;;;;;;25.10;93.90;;;;;;5094923;28;19998;-64
2023/07/07 06:37:08;;;;;;;;;;;25.20;93.40;;;;;;5094984;28;20085;-63
2023/07/07 06:39:34;;;;;;;;;;;25.30;92.90;;;;;;5094973;28;19985;-63
2023/07/07 06:42:01;;;;;;;;;;;25.20;92.30;;;;;;5094512;28;20016;-62
2023/07/07 06:44:26;;;;;;;;;;;25.10;92.50;;;;;;5094916;28;20477;-62
2023/07/07 06:46:52;;;;;;;;;;;25.20;92.30;;;;;;5094570;28;20021;-64
2023/07/07 06:49:18;;;;;;;;;;;25.20;93.50;;;;;;5094770;28;19991;-62
2023/07/07 06:51:44;;;;;;;;;;;25.10;93.20;;;;;;5094895;28;20386;-62
2023/07/07 06:54:10;;;;;;;;;;;25.10;92.10;;;;;;5094669;28;19985;-63
2023/07/07 06:56:35;;;;;;;;;;;24.90;94.20;;;;;;5094510;28;20008;-64
2023/07/07 06:59:02;;;;;;;;;;;24.90;93.20;;;;;;5094186;28;19992;-63
2023/07/07 07:01:28;;;;;;;;;;;25.10;92.30;;;;;;5094734;28;20017;-63
2023/07/07 07:03:54;;;;;;;;;;;25.20;91.70;;;;;;5094468;28;20446;-64
2023/07/07 07:06:19;;;;;;;;;;;25.30;90.40;;;;;;5094337;28;20351;-63
2023/07/07 07:08:45;;;;;;;;;;;25.40;90.50;;;;;;5094409;28;20348;-62
2023/07/07 07:11:10;;;;;;;;;;;25.60;88.40;;;;;;5094439;28;20038;-63
2023/07/07 07:13:36;;;;;;;;;;;25.70;88.80;;;;;;5094002;28;19992;-62
2023/07/07 07:16:01;;;;;;;;;;;25.80;88.40;;;;;;5094287;28;19991;-62
2023/07/07 07:18:27;;;;;;;;;;;25.90;90.50;;;;;;5094421;28;19990;-63
2023/07/07 07:20:54;;;;;;;;;;;25.90;88.60;;;;;;5094284;28;20429;-64
2023/07/07 07:23:20;;;;;;;;;;;26.00;87.40;;;;;;5094088;28;19989;-62
2023/07/07 07:25:45;;;;;;;;;;;26.10;81.90;;;;;;5094078;28;19985;-63
2023/07/07 07:28:11;;;;;;;;;;;26.40;85.30;;;;;;5094131;28;19989;-62
2023/07/07 07:30:37;;;;;;;;;;;26.60;80.20;;;;;;5093491;28;20038;-64
2023/07/07 07:33:03;;;;;;;;;;;26.80;78.80;;;;;;5094325;28;19993;-64
2023/07/07 07:35:29;;;;;;;;;;;26.90;77.20;;;;;;5093887;28;20036;-64
2023/07/07 07:37:55;;;;;;;;;;;27.10;72.20;;;;;;5093895;28;19992;-62
2023/07/07 07:40:23;;;;;;;;;;;27.20;71.30;;;;;;5093758;28;20103;-64
2023/07/07 07:42:48;;;;;;;;;;;27.40;71.60;;;;;;5093635;28;20079;-62
2023/07/07 07:45:16;;;;;;;;;;;27.70;71.50;;;;;;5093536;28;20028;-62
2023/07/07 07:47:42;;;;;;;;;;;28.50;69.80;;;;;;5093915;28;19992;-63
2023/07/07 07:50:07;;;;;;;;;;;30.60;61.00;;;;;;5093840;28;20014;-63
2023/07/07 07:52:33;;;;;;;;;;;32.10;59.30;;;;;;5093496;28;19993;-63
2023/07/07 07:54:58;;;;;;;;;;;33.20;57.20;;;;;;5093712;28;19984;-63
2023/07/07 07:57:24;;;;;;;;;;;34.00;56.60;;;;;;5093796;28;20094;-65
2023/07/07 07:59:50;;;;;;;;;;;34.70;53.30;;;;;;5093884;28;20432;-62
2023/07/07 08:02:15;;;;;;;;;;;35.50;51.40;;;;;;5093670;28;20008;-64
2023/07/07 08:04:41;;;;;;;;;;;36.00;53.30;;;;;;5093950;28;19993;-65
2023/07/07 08:07:06;;;;;;;;;;;36.40;48.50;;;;;;5093652;28;20494;-62
2023/07/07 08:09:32;;;;;;;;;;;36.70;46.60;;;;;;5093377;28;19989;-64
2023/07/07 08:11:58;;;;;;;;;;;36.20;46.70;;;;;;5093323;28;20079;-64
2023/07/07 08:14:30;;;;;;;;;;;34.90;45.20;;;;;;5092707;28;20024;-63
2023/07/07 08:17:02;;;;;;;;;;;33.50;48.30;;;;;;5093722;28;20450;-63
2023/07/07 08:19:28;;;;;;;;;;;32.70;48.80;;;;;;5093974;28;19989;-62
2023/07/07 08:21:54;;;;;;;;;;;32.60;48.70;;;;;;5093436;28;20009;-64
2023/07/07 08:24:19;;;;;;;;;;;31.50;48.00;;;;;;5093130;28;19989;-63
2023/07/07 08:26:46;;;;;;;;;;;30.60;50.60;;;;;;5093475;28;19992;-64
2023/07/07 08:29:12;;;;;;;;;;;30.00;49.00;;;;;;5093384;28;19985;-62
2023/07/07 08:31:38;;;;;;;;;;;29.40;50.50;;;;;;5093043;28;20471;-63
2023/07/07 08:34:04;;;;;;;;;;;29.10;54.30;;;;;;5093454;28;20396;-63
2023/07/07 08:36:30;;;;;;;;;;;29.00;53.40;;;;;;5093306;28;19985;-62
2023/07/07 08:39:00;;;;;;;;;;;28.70;53.80;;;;;;5092287;28;20025;-63
2023/07/07 08:41:27;;;;;;;;;;;28.40;55.80;;;;;;5093478;28;20013;-62
2023/07/07 08:43:53;;;;;;;;;;;28.40;57.10;;;;;;5097128;28;20007;-62
2023/07/07 08:46:25;;;;;;;;;;;28.30;57.90;;;;;;5096784;28;20119;-63
2023/07/07 08:49:04;;;;;;;;;;;28.40;57.60;;;;;;5096933;28;20415;-64
2023/07/07 08:51:34;;;;;;;;;;;28.40;57.90;;;;;;5096739;28;19988;-61
2023/07/07 08:53:59;;;;;;;;;;;28.40;58.90;;;;;;5096635;28;19985;-61
2023/07/07 08:56:32;;;;;;;;;;;28.10;59.60;;;;;;5097013;28;20362;-62
2023/07/07 08:58:57;;;;;;;;;;;27.90;60.60;;;;;;5096636;28;20500;-64
2023/07/07 09:01:23;;;;;;;;;;;27.70;61.70;;;;;;5096832;28;20016;-63
2023/07/07 09:04:04;;;;;;;;;;;27.80;59.80;;;;;;5096583;28;19991;-61
2023/07/07 09:06:42;;;;;;;;;;;27.80;60.60;;;;;;5096488;28;19992;-62
2023/07/07 09:09:26;;;;;;;;;;;27.80;60.60;;;;;;5078169;28;20371;-64
2023/07/07 09:12:24;;;;;;;;;;;27.90;59.30;;;;;;5078433;28;19992;-63
2023/07/07 09:14:51;;;;;;;;;;;27.70;59.50;;;;;;5062197;28;20444;-63
2023/07/07 09:17:23;;;;;;;;;;;27.90;60.00;;;;;;5096690;28;20451;-61
2023/07/07 09:19:51;;;;;;;;;;;28.00;61.90;;;;;;5096326;28;20004;-62
2023/07/07 09:22:19;;;;;;;;;;;27.90;61.30;;;;;;5096467;28;19993;-64
2023/07/07 09:24:47;;;;;;;;;;;27.90;63.60;;;;;;5096391;28;19989;-64
2023/07/07 09:27:26;;;;;;;;;;;27.80;64.70;;;;;;5096193;28;19989;-64
2023/07/07 09:29:55;;;;;;;;;;;27.80;67.20;;;;;;5096200;28;20405;-63
2023/07/07 09:32:22;;;;;;;;;;;27.40;64.90;;;;;;5096220;28;20000;-62
2023/07/07 09:34:48;;;;;;;;;;;27.20;64.40;;;;;;5095481;28;20072;-63
2023/07/07 09:37:39;;;;;;;;;;;27.30;63.60;;;;;;5095931;28;20456;-64
2023/07/07 09:40:04;;;;;;;;;;;27.40;63.80;;;;;;5096130;28;19993;-62
2023/07/07 09:42:44;;;;;;;;;;;27.40;64.70;;;;;;5096003;28;20390;-64
2023/07/07 09:45:10;;;;;;;;;;;27.40;64.30;;;;;;5095822;28;20370;-64
2023/07/07 09:47:47;;;;;;;;;;;27.30;63.90;;;;;;5095958;28;19984;-62
2023/07/07 09:50:28;;;;;;;;;;;27.50;63.40;;;;;;5095929;28;20030;-62
2023/07/07 09:53:03;;;;;;;;;;;28.20;65.60;;;;;;5095498;28;20405;-64
2023/07/07 09:55:30;;;;;;;;;;;28.20;59.50;;;;;;5095862;28;20101;-63
2023/07/07 09:57:55;;;;;;;;;;;27.90;63.90;;;;;;5095565;28;20001;-62
2023/07/07 10:00:22;;;;;;;;;;;27.70;61.80;;;;;;5095625;28;20015;-63
2023/07/07 10:02:48;;;;;;;;;;;27.60;63.30;;;;;;5095685;28;19996;-63
2023/07/07 10:05:20;;;;;;;;;;;27.50;63.80;;;;;;5095743;28;19992;-64
2023/07/07 10:07:46;;;;;;;;;;;27.60;62.80;;;;;;5095353;28;19992;-63
2023/07/07 10:10:13;;;;;;;;;;;27.70;62.30;;;;;;5095458;28;19985;-64
2023/07/07 10:12:39;;;;;;;;;;;27.70;62.30;;;;;;5095282;28;20463;-63
2023/07/07 10:15:25;;;;;;;;;;;27.70;62.40;;;;;;5095444;28;20036;-64
2023/07/07 10:17:53;;;;;;;;;;;27.70;61.60;;;;;;5062277;28;19988;-65
2023/07/07 10:20:20;;;;;;;;;;;27.70;61.00;;;;;;5095129;28;20009;-63
2023/07/07 10:22:45;;;;;;;;;;;27.80;62.40;;;;;;5095238;28;20508;-63
2023/07/07 10:25:15;;;;;;;;;;;28.00;61.50;;;;;;5095338;28;19989;-62
2023/07/07 10:27:47;;;;;;;;;;;28.20;61.10;;;;;;5095109;28;19985;-63
2023/07/07 10:30:13;;;;;;;;;;;28.40;61.70;;;;;;5094799;28;19989;-65
2023/07/07 10:32:38;;;;;;;;;;;28.60;59.20;;;;;;5094513;28;20039;-62
2023/07/07 10:35:05;;;;;;;;;;;28.80;60.40;;;;;;5093845;28;19985;-62
2023/07/07 10:37:33;;;;;;;;;;;28.80;59.40;;;;;;5094947;28;20443;-64
2023/07/07 10:40:00;;;;;;;;;;;29.00;60.70;;;;;;5094846;28;19985;-63
2023/07/07 10:42:26;;;;;;;;;;;29.00;59.70;;;;;;5094870;28;19985;-63
2023/07/07 10:44:53;;;;;;;;;;;29.10;59.70;;;;;;5094950;28;19992;-64
2023/07/07 10:47:20;;;;;;;;;;;29.20;60.70;;;;;;5093625;28;20032;-61
2023/07/07 10:49:46;;;;;;;;;;;29.20;62.90;;;;;;5094201;28;20503;-63
2023/07/07 10:52:12;;;;;;;;;;;29.10;61.20;;;;;;5093308;28;20031;-62
2023/07/07 10:55:00;;;;;;;;;;;29.30;61.50;;;;;;5093135;28;20024;-64
2023/07/07 10:57:28;;;;;;;;;;;29.70;62.20;;;;;;5075920;28;20442;-64
2023/07/07 11:00:01;;;;;;;;;;;29.90;60.20;;;;;;5094642;28;19988;-64
2023/07/07 11:02:36;;;;;;;;;;;29.90;61.30;;;;;;5094571;28;19992;-63
2023/07/07 11:05:01;;;;;;;;;;;29.70;59.40;;;;;;5093612;28;19985;-62
2023/07/07 11:07:46;;;;;;;;;;;29.80;59.90;;;;;;5094562;28;19989;-62
2023/07/07 11:10:14;;;;;;;;;;;30.40;58.10;;;;;;5094469;28;20081;-64
2023/07/07 11:12:59;;;;;;;;;;;30.80;57.90;;;;;;5094261;28;19996;-62
2023/07/07 11:15:43;;;;;;;;;;;31.40;56.70;;;;;;5094180;28;19989;-63
2023/07/07 11:18:12;;;;;;;;;;;31.70;57.10;;;;;;5094022;28;19984;-62
2023/07/07 11:20:56;;;;;;;;;;;31.50;58.70;;;;;;5094083;28;20055;-64
2023/07/07 11:23:21;;;;;;;;;;;31.50;59.20;;;;;;5094199;28;19985;-64
2023/07/07 11:25:47;;;;;;;;;;;31.50;58.50;;;;;;5093192;28;20332;-64
2023/07/07 11:28:21;;;;;;;;;;;31.70;55.10;;;;;;5093140;28;20018;-64
2023/07/07 11:30:52;;;;;;;;;;;32.40;55.50;;;;;;5093666;28;19988;-62
2023/07/07 11:33:36;;;;;;;;;;;32.30;55.80;;;;;;5093629;28;20076;-62
2023/07/07 11:36:03;;;;;;;;;;;32.70;55.20;;;;;;5093901;28;20039;-62
2023/07/07 11:38:48;;;;;;;;;;;32.90;53.20;;;;;;5093799;28;19985;-62
2023/07/07 11:41:14;;;;;;;;;;;33.00;52.00;;;;;;5093739;28;20012;-64
2023/07/07 11:43:51;;;;;;;;;;;32.90;53.70;;;;;;5094154;28;20039;-63
2023/07/07 11:46:52;;;;;;;;;;;33.30;52.10;;;;;;5093718;28;20111;-64
2023/07/07 11:49:21;;;;;;;;;;;32.70;50.90;;;;;;5031187;28;19988;-64
2023/07/07 11:51:52;;;;;;;;;;;32.50;51.40;;;;;;5082205;28;19989;-62
2023/07/07 11:54:29;;;;;;;;;;;32.80;48.30;;;;;;5093888;28;20504;-62
2023/07/07 11:57:15;;;;;;;;;;;32.80;49.20;;;;;;5093591;28;20047;-64
2023/07/07 12:00:11;;;;;;;;;;;32.60;48.80;;;;;;5093060;28;19993;-64
2023/07/07 12:02:41;;;;;;;;;;;32.40;47.30;;;;;;5093496;28;20448;-64
2023/07/07 12:05:12;;;;;;;;;;;32.40;48.50;;;;;;5093615;28;20075;-63
2023/07/07 12:07:51;;;;;;;;;;;32.10;47.30;;;;;;5093683;28;19985;-63
2023/07/07 12:10:17;;;;;;;;;;;31.90;45.60;;;;;;5093654;28;19985;-64
2023/07/07 12:13:05;;;;;;;;;;;31.80;44.60;;;;;;5093557;28;20072;-65
2023/07/07 12:15:37;;;;;;;;;;;31.40;41.60;;;;;;5085519;28;20523;-62
2023/07/07 12:18:11;;;;;;;;;;;31.20;42.10;;;;;;5097467;28;19996;-62
2023/07/07 12:20:40;;;;;;;;;;;30.90;45.40;;;;;;5097512;28;20013;-63
2023/07/07 12:23:11;;;;;;;;;;;30.60;42.40;;;;;;5097530;28;19985;-64
2023/07/07 12:25:36;;;;;;;;;;;30.50;42.40;;;;;;5097521;28;20063;-64
2023/07/07 12:28:02;;;;;;;;;;;30.30;40.40;;;;;;5097635;28;20092;-61
2023/07/07 12:30:30;;;;;;;;;;;30.00;40.30;;;;;;5097032;28;19989;-64
2023/07/07 12:32:57;;;;;;;;;;;29.60;39.50;;;;;;5097619;28;20389;-63
2023/07/07 12:35:30;;;;;;;;;;;29.60;41.10;;;;;;5097318;28;19992;-63
2023/07/07 12:37:57;;;;;;;;;;;29.40;41.60;;;;;;5097224;28;20007;-62
2023/07/07 12:40:23;;;;;;;;;;;29.40;43.30;;;;;;5097223;28;20009;-64
2023/07/07 12:42:57;;;;;;;;;;;29.70;41.80;;;;;;5097188;28;20035;-63
2023/07/07 12:45:30;;;;;;;;;;;29.90;42.60;;;;;;5097143;28;19992;-62
2023/07/07 12:48:14;;;;;;;;;;;30.00;42.80;;;;;;5097322;28;20040;-62
2023/07/07 12:50:42;;;;;;;;;;;30.10;42.10;;;;;;5097299;28;19993;-63
2023/07/07 12:53:29;;;;;;;;;;;30.20;43.50;;;;;;5097072;28;20436;-64
2023/07/07 12:55:57;;;;;;;;;;;30.40;42.40;;;;;;5096920;28;20360;-64
2023/07/07 12:58:37;;;;;;;;;;;30.90;45.40;;;;;;5096104;28;21548;-64
2023/07/07 13:01:26;;;;;;;;;;;31.20;39.10;;;;;;5096488;28;20480;-62
2023/07/07 13:04:08;;;;;;;;;;;31.20;40.70;;;;;;5088651;28;20406;-64
2023/07/07 13:06:39;;;;;;;;;;;31.60;42.60;;;;;;5096714;28;20071;-64
2023/07/07 13:09:09;;;;;;;;;;;31.60;41.90;;;;;;5096721;28;20025;-64
2023/07/07 13:11:35;;;;;;;;;;;31.10;41.00;;;;;;5096586;28;20016;-63
2023/07/07 13:14:01;;;;;;;;;;;30.80;40.10;;;;;;5096436;28;20527;-61
2023/07/07 13:16:27;;;;;;;;;;;30.90;42.40;;;;;;5096825;28;20167;-64
2023/07/07 13:18:53;;;;;;;;;;;31.10;43.20;;;;;;5096426;28;20067;-62
2023/07/07 13:21:20;;;;;;;;;;;31.40;47.10;;;;;;5096419;28;20111;-64
2023/07/07 13:23:48;;;;;;;;;;;31.60;46.70;;;;;;5096428;28;20379;-62
2023/07/07 13:26:23;;;;;;;;;;;31.50;45.00;;;;;;5096355;28;19989;-64
2023/07/07 13:28:48;;;;;;;;;;;31.10;45.00;;;;;;5095673;28;19995;-62
2023/07/07 13:31:15;;;;;;;;;;;31.40;46.20;;;;;;5096252;28;19993;-62
2023/07/07 13:33:41;;;;;;;;;;;31.50;45.80;;;;;;5096459;28;20036;-65
2023/07/07 13:36:08;;;;;;;;;;;31.30;46.50;;;;;;5096243;28;20484;-62
2023/07/07 13:38:34;;;;;;;;;;;31.40;45.60;;;;;;5096143;28;20021;-63
2023/07/07 13:41:01;;;;;;;;;;;31.50;46.70;;;;;;5095958;28;20451;-64
2023/07/07 13:43:26;;;;;;;;;;;31.20;46.10;;;;;;5095849;28;19985;-63
2023/07/07 13:45:56;;;;;;;;;;;31.20;47.60;;;;;;5095883;28;20020;-63
2023/07/07 13:48:23;;;;;;;;;;;31.30;48.60;;;;;;5096144;28;20015;-64
2023/07/07 13:50:49;;;;;;;;;;;31.80;51.10;;;;;;5096192;28;20438;-61
2023/07/07 13:53:15;;;;;;;;;;;32.10;50.40;;;;;;5095998;28;19988;-61
2023/07/07 13:55:43;;;;;;;;;;;31.80;46.90;;;;;;5095773;28;20040;-62
2023/07/07 13:58:16;;;;;;;;;;;31.30;46.80;;;;;;5095489;28;20041;-63
2023/07/07 14:00:42;;;;;;;;;;;31.20;45.80;;;;;;5095662;28;20104;-63
2023/07/07 14:03:14;;;;;;;;;;;31.30;48.20;;;;;;5095467;28;19993;-64
2023/07/07 14:05:40;;;;;;;;;;;31.50;47.00;;;;;;5095706;28;20000;-62
2023/07/07 14:08:07;;;;;;;;;;;31.40;45.40;;;;;;5095571;28;19989;-63
2023/07/07 14:10:37;;;;;;;;;;;31.30;44.10;;;;;;5095700;28;20386;-61
2023/07/07 14:13:03;;;;;;;;;;;31.20;47.00;;;;;;5095490;28;19996;-63
2023/07/07 14:15:34;;;;;;;;;;;30.90;44.30;;;;;;5095381;28;20463;-61
2023/07/07 14:18:02;;;;;;;;;;;30.80;44.50;;;;;;5095333;28;19991;-64
2023/07/07 14:20:31;;;;;;;;;;;30.60;42.50;;;;;;5095329;28;20015;-63
2023/07/07 14:22:57;;;;;;;;;;;31.00;46.50;;;;;;5095202;28;19989;-61